Time;durP1;ratioP1;P1;durP2;ratioP2;P2;SDS_P1;SDS_P2;PMS_P1;PMS_P2;Temp;Humidity;BMP_temperature;BMP_pressure;BME280_temperature;BME280_humidity;BME280_pressure;Samples;Min_cycle;Max_cycle;Signal;HPM_P1;HPM_P2
2022/02/15 00:02:20;;;;;;;12.43;4.10;;;7.70;99.90;;;;;;5051749;28;20068;-55
2022/02/15 00:04:46;;;;;;;14.15;4.45;;;7.80;99.90;;;;;;5051454;28;20037;-55
2022/02/15 00:07:12;;;;;;;14.30;4.00;;;7.80;99.90;;;;;;5051730;28;20040;-55
2022/02/15 00:09:37;;;;;;;14.02;3.53;;;7.80;99.90;;;;;;5051920;28;20060;-55
2022/02/15 00:12:03;;;;;;;8.23;3.47;;;7.80;99.90;;;;;;5050844;28;20477;-56
2022/02/15 00:14:29;;;;;;;11.43;4.00;;;7.70;99.90;;;;;;5051197;28;20055;-56
2022/02/15 00:16:55;;;;;;;11.13;3.65;;;7.70;99.90;;;;;;5051846;28;20040;-55
2022/02/15 00:19:21;;;;;;;13.52;3.60;;;7.60;99.90;;;;;;5052007;28;20433;-55
2022/02/15 00:21:46;;;;;;;9.65;3.28;;;7.50;99.90;;;;;;5052092;28;20024;-55
2022/02/15 00:24:12;;;;;;;11.05;3.65;;;7.50;99.90;;;;;;5051813;28;20083;-55
2022/02/15 00:26:38;;;;;;;9.20;3.90;;;7.50;99.90;;;;;;5051548;28;20344;-55
2022/02/15 00:29:03;;;;;;;13.38;3.95;;;7.50;99.90;;;;;;5052967;28;20712;-55
2022/02/15 00:31:29;;;;;;;15.07;3.95;;;7.50;99.90;;;;;;5052555;28;20032;-55
2022/02/15 00:33:55;;;;;;;12.20;4.18;;;7.50;99.90;;;;;;5052053;28;20021;-55
2022/02/15 00:36:21;;;;;;;19.45;3.20;;;7.60;99.90;;;;;;5053070;28;20021;-55
2022/02/15 00:38:46;;;;;;;11.63;3.10;;;7.60;99.90;;;;;;5058281;28;20029;-56
2022/02/15 00:41:12;;;;;;;13.52;3.08;;;7.50;99.90;;;;;;5058497;28;20021;-55
2022/02/15 00:43:38;;;;;;;13.45;3.35;;;7.50;99.90;;;;;;5059110;28;20088;-55
2022/02/15 00:46:04;;;;;;;12.38;3.70;;;7.50;99.90;;;;;;5058701;28;20017;-55
2022/02/15 00:48:30;;;;;;;16.70;3.05;;;7.40;99.90;;;;;;5058879;28;20080;-55
2022/02/15 00:50:56;;;;;;;13.60;3.88;;;7.50;99.90;;;;;;5058854;28;20029;-55
2022/02/15 00:53:21;;;;;;;13.85;3.70;;;7.50;99.90;;;;;;5058766;28;20023;-56
2022/02/15 00:55:47;;;;;;;12.90;4.05;;;7.50;99.90;;;;;;5059183;28;20028;-55
2022/02/15 00:58:13;;;;;;;13.68;3.88;;;7.40;99.90;;;;;;5059187;28;20370;-55
2022/02/15 01:00:39;;;;;;;14.70;4.18;;;7.40;99.90;;;;;;5058358;28;20390;-55
2022/02/15 01:03:04;;;;;;;9.27;3.65;;;7.40;99.90;;;;;;5058625;28;20021;-55
2022/02/15 01:05:30;;;;;;;12.50;3.65;;;7.40;99.90;;;;;;5058044;28;20025;-55
2022/02/15 01:07:55;;;;;;;10.15;4.32;;;7.30;99.90;;;;;;5058104;28;20056;-55
2022/02/15 01:10:22;;;;;;;17.33;4.63;;;7.30;99.90;;;;;;5058066;28;20036;-55
2022/02/15 01:12:49;;;;;;;16.02;4.30;;;7.20;99.90;;;;;;5058503;28;20520;-55
2022/02/15 01:15:16;;;;;;;14.60;4.35;;;7.20;99.90;;;;;;5058323;28;20106;-55
2022/02/15 01:17:43;;;;;;;13.68;4.55;;;7.20;99.90;;;;;;5056815;28;20021;-55
2022/02/15 01:20:09;;;;;;;13.70;4.15;;;7.20;99.90;;;;;;5058829;28;20025;-55
2022/02/15 01:22:35;;;;;;;9.63;4.20;;;7.20;99.90;;;;;;5058786;28;20372;-55
2022/02/15 01:25:00;;;;;;;12.15;4.78;;;7.20;99.90;;;;;;5058937;28;20029;-55
2022/02/15 01:27:26;;;;;;;12.32;4.78;;;7.10;99.90;;;;;;5058996;28;20481;-55
2022/02/15 01:29:52;;;;;;;10.00;4.60;;;7.20;99.90;;;;;;5058566;28;20103;-55
2022/02/15 01:32:17;;;;;;;11.80;4.65;;;7.10;99.90;;;;;;5058770;28;20021;-55
2022/02/15 01:34:43;;;;;;;13.80;5.28;;;7.10;99.90;;;;;;5058514;28;20048;-55
2022/02/15 01:37:09;;;;;;;15.88;5.35;;;7.20;99.90;;;;;;5058486;28;20029;-55
2022/02/15 01:39:34;;;;;;;12.50;5.65;;;7.20;99.90;;;;;;5058212;28;20117;-55
2022/02/15 01:42:01;;;;;;;11.63;5.35;;;7.20;99.90;;;;;;5058502;28;20623;-55
2022/02/15 01:44:27;;;;;;;12.98;6.05;;;7.20;99.90;;;;;;5058682;28;20032;-55
2022/02/15 01:46:54;;;;;;;17.80;6.38;;;7.20;99.90;;;;;;5057785;28;20717;-55
2022/02/15 01:49:20;;;;;;;17.30;6.53;;;7.20;99.90;;;;;;5054128;28;20041;-56
2022/02/15 01:51:45;;;;;;;12.60;6.22;;;7.10;99.90;;;;;;5054713;28;20113;-55
2022/02/15 01:54:11;;;;;;;17.27;6.40;;;7.20;99.90;;;;;;5053981;28;20025;-56
2022/02/15 01:56:37;;;;;;;16.30;6.13;;;7.20;99.90;;;;;;5053813;28;20025;-56
2022/02/15 01:59:03;;;;;;;13.23;6.03;;;7.20;99.90;;;;;;5054699;28;20100;-55
2022/02/15 02:01:29;;;;;;;14.95;6.65;;;7.20;99.90;;;;;;5054373;28;20044;-55
2022/02/15 02:03:54;;;;;;;16.23;6.68;;;7.20;99.90;;;;;;5055122;28;20100;-55
2022/02/15 02:06:20;;;;;;;15.07;6.60;;;7.20;99.90;;;;;;5054655;28;20017;-56
2022/02/15 02:08:47;;;;;;;12.13;6.43;;;7.20;99.90;;;;;;5054746;28;20448;-55
2022/02/15 02:11:13;;;;;;;16.23;7.13;;;7.20;99.90;;;;;;5054401;28;20044;-55
2022/02/15 02:13:38;;;;;;;14.27;7.22;;;7.20;99.90;;;;;;5054650;28;20018;-55
2022/02/15 02:16:04;;;;;;;19.80;7.68;;;7.20;99.90;;;;;;5053399;28;20064;-55
2022/02/15 02:18:30;;;;;;;14.57;7.18;;;7.20;99.90;;;;;;5054145;28;20029;-56
2022/02/15 02:21:02;;;;;;;12.63;6.20;;;7.20;99.90;;;;;;5054206;28;20026;-55
2022/02/15 02:23:28;;;;;;;13.52;7.35;;;7.10;99.90;;;;;;5054493;28;20032;-55
2022/02/15 02:25:53;;;;;;;15.77;7.85;;;7.10;99.90;;;;;;5054212;28;20041;-56
2022/02/15 02:28:20;;;;;;;16.85;8.45;;;6.90;99.90;;;;;;5054151;28;20055;-56
2022/02/15 02:30:46;;;;;;;13.60;7.55;;;6.80;99.90;;;;;;5053699;28;20049;-56
2022/02/15 02:33:11;;;;;;;16.90;7.88;;;6.80;99.90;;;;;;5053681;28;20112;-57
2022/02/15 02:35:37;;;;;;;12.63;8.30;;;6.80;99.90;;;;;;5053523;28;20124;-56
2022/02/15 02:38:03;;;;;;;16.80;8.30;;;6.70;99.90;;;;;;5053330;28;20108;-56
2022/02/15 02:40:29;;;;;;;17.05;8.20;;;6.70;99.90;;;;;;5053598;28;20090;-56
2022/02/15 02:42:55;;;;;;;17.00;8.75;;;6.70;99.90;;;;;;5053247;28;20021;-56
2022/02/15 02:45:22;;;;;;;14.88;8.65;;;6.60;99.90;;;;;;5053433;28;20382;-56
2022/02/15 02:47:53;;;;;;;17.38;8.50;;;6.60;99.90;;;;;;5052689;28;20107;-56
2022/02/15 02:50:21;;;;;;;15.50;8.07;;;6.60;99.90;;;;;;5052941;28;20078;-56
2022/02/15 02:52:47;;;;;;;14.18;7.90;;;6.50;99.90;;;;;;5053610;28;20039;-56
2022/02/15 02:55:13;;;;;;;14.23;8.20;;;6.60;99.90;;;;;;5053631;28;20032;-56
2022/02/15 02:57:39;;;;;;;13.80;7.88;;;6.60;99.90;;;;;;5053695;28;20416;-56
2022/02/15 03:00:12;;;;;;;16.60;7.70;;;6.70;99.90;;;;;;5052363;28;20049;-56
2022/02/15 03:02:38;;;;;;;13.40;7.13;;;6.70;99.90;;;;;;5053536;28;20104;-56
2022/02/15 03:05:04;;;;;;;14.98;6.65;;;6.70;99.90;;;;;;5053297;28;20064;-56
2022/02/15 03:07:29;;;;;;;12.63;6.88;;;6.70;99.90;;;;;;5053285;28;20063;-56
2022/02/15 03:09:55;;;;;;;19.50;7.30;;;6.70;99.90;;;;;;5053424;28;20037;-56
2022/02/15 03:12:21;;;;;;;13.25;6.85;;;6.70;99.90;;;;;;5053816;28;20366;-56
2022/02/15 03:14:47;;;;;;;12.90;6.20;;;6.70;99.90;;;;;;5053262;28;20119;-56
2022/02/15 03:17:14;;;;;;;11.98;6.28;;;6.60;99.90;;;;;;5052555;28;20433;-56
2022/02/15 03:19:40;;;;;;;17.88;7.07;;;6.60;99.90;;;;;;5052816;28;20389;-56
2022/02/15 03:22:05;;;;;;;15.95;7.22;;;6.60;99.90;;;;;;5052916;28;20025;-56
2022/02/15 03:24:33;;;;;;;15.95;6.93;;;6.60;99.90;;;;;;5053120;28;20029;-56
2022/02/15 03:26:59;;;;;;;14.40;6.88;;;6.70;99.90;;;;;;5052231;28;20029;-56
2022/02/15 03:29:25;;;;;;;16.80;6.60;;;6.70;99.90;;;;;;5052482;28;20493;-56
2022/02/15 03:31:50;;;;;;;14.52;6.85;;;6.70;99.90;;;;;;5052965;28;20021;-56
2022/02/15 03:34:16;;;;;;;14.48;6.15;;;6.70;99.90;;;;;;5052432;28;20064;-56
2022/02/15 03:36:42;;;;;;;10.68;6.40;;;6.70;99.90;;;;;;5053146;28;20029;-56
2022/02/15 03:39:09;;;;;;;12.90;6.15;;;6.70;99.90;;;;;;5052985;28;20043;-56
2022/02/15 03:44:21;;;;;;;12.13;6.45;;;6.70;99.90;;;;;;5053091;28;20097;-56
2022/02/15 03:46:48;;;;;;;10.45;5.78;;;6.70;99.90;;;;;;5052775;28;20492;-56
2022/02/15 03:49:14;;;;;;;19.13;6.57;;;6.70;99.90;;;;;;5052895;28;20241;-56
2022/02/15 03:51:41;;;;;;;17.20;6.13;;;6.70;99.90;;;;;;5052785;28;20036;-56
2022/02/15 03:54:07;;;;;;;12.75;6.13;;;6.80;99.90;;;;;;5052933;28;20048;-56
2022/02/15 03:56:34;;;;;;;10.55;5.90;;;6.80;99.90;;;;;;5052751;28;20379;-56
2022/02/15 03:59:00;;;;;;;13.48;6.10;;;6.80;99.90;;;;;;5052921;28;20017;-56
2022/02/15 04:01:27;;;;;;;12.27;5.50;;;6.80;99.90;;;;;;5053200;28;20068;-56
2022/02/15 04:03:52;;;;;;;12.05;5.70;;;6.80;99.90;;;;;;5052508;28;20070;-56
2022/02/15 04:06:18;;;;;;;10.73;5.20;;;6.80;99.90;;;;;;5052610;28;20116;-56
2022/02/15 04:08:44;;;;;;;14.80;5.32;;;6.80;99.90;;;;;;5052321;28;20024;-56
2022/02/15 04:11:10;;;;;;;11.10;4.90;;;6.80;99.90;;;;;;5052308;28;20337;-56
2022/02/15 04:13:35;;;;;;;12.68;5.07;;;6.80;99.90;;;;;;5052525;28;20112;-56
2022/02/15 04:16:01;;;;;;;11.32;4.88;;;6.80;99.90;;;;;;5052180;28;20091;-56
2022/02/15 04:18:27;;;;;;;10.38;4.63;;;6.70;99.90;;;;;;5052484;28;20436;-56
2022/02/15 04:20:52;;;;;;;15.32;5.00;;;6.80;99.90;;;;;;5052216;28;20032;-56
2022/02/15 04:23:18;;;;;;;11.43;4.40;;;6.80;99.90;;;;;;5052392;28;20509;-56
2022/02/15 04:25:44;;;;;;;12.27;4.68;;;6.70;99.90;;;;;;5052476;28;20025;-56
2022/02/15 04:28:10;;;;;;;9.73;4.22;;;6.80;99.90;;;;;;5052172;28;20029;-56
2022/02/15 04:30:35;;;;;;;9.82;4.78;;;6.80;99.90;;;;;;5052085;28;20120;-55
2022/02/15 04:33:02;;;;;;;14.90;4.50;;;6.80;99.90;;;;;;5052217;28;20032;-55
2022/02/15 04:35:28;;;;;;;10.95;4.43;;;6.80;99.90;;;;;;5052386;28;20032;-55
2022/02/15 04:37:54;;;;;;;11.18;4.57;;;6.80;99.90;;;;;;5052200;28;20029;-56
2022/02/15 04:40:19;;;;;;;13.15;4.82;;;6.80;99.90;;;;;;5052316;28;20470;-56
2022/02/15 04:42:45;;;;;;;12.75;4.57;;;6.80;99.90;;;;;;5050975;28;20473;-56
2022/02/15 04:45:11;;;;;;;12.57;4.35;;;6.70;99.90;;;;;;5052593;28;20095;-56
2022/02/15 04:47:37;;;;;;;14.48;4.55;;;6.70;99.90;;;;;;5052034;28;20295;-55
2022/02/15 04:50:03;;;;;;;12.98;4.63;;;6.60;99.90;;;;;;5052262;28;20075;-56
2022/02/15 04:52:29;;;;;;;10.88;4.68;;;6.60;99.90;;;;;;5051458;28;20052;-55
2022/02/15 04:54:54;;;;;;;12.07;4.55;;;6.60;99.90;;;;;;5052376;28;20033;-55
2022/02/15 04:57:20;;;;;;;13.15;5.13;;;6.50;99.90;;;;;;5052075;28;20108;-55
2022/02/15 04:59:45;;;;;;;13.40;4.78;;;6.40;99.90;;;;;;5052065;28;20124;-55
2022/02/15 05:02:12;;;;;;;12.13;5.25;;;6.40;99.90;;;;;;5050598;28;20029;-55
2022/02/15 05:04:49;;;;;;;9.65;4.63;;;6.30;99.90;;;;;;5051926;28;20329;-55
2022/02/15 05:07:22;;;;;;;13.00;4.68;;;6.30;99.90;;;;;;5051904;28;20489;-55
2022/02/15 05:09:49;;;;;;;10.55;4.20;;;6.30;99.90;;;;;;5051639;28;20430;-55
2022/02/15 05:12:15;;;;;;;9.48;4.43;;;6.30;99.90;;;;;;5051691;28;20028;-55
2022/02/15 05:14:41;;;;;;;9.70;4.25;;;6.30;99.90;;;;;;5051189;28;20067;-55
2022/02/15 05:17:07;;;;;;;10.18;4.07;;;6.30;99.90;;;;;;5052187;28;20021;-55
2022/02/15 05:19:33;;;;;;;13.40;4.57;;;6.40;99.90;;;;;;5051417;28;20029;-55
2022/02/15 05:21:59;;;;;;;9.85;4.18;;;6.40;99.90;;;;;;5051448;28;20025;-55
2022/02/15 05:24:25;;;;;;;10.40;4.65;;;6.30;99.90;;;;;;5054432;28;20025;-56
2022/02/15 05:26:50;;;;;;;14.43;4.50;;;6.30;99.90;;;;;;5055450;28;20032;-56
2022/02/15 05:29:16;;;;;;;12.55;4.07;;;6.20;99.90;;;;;;5055239;28;20631;-55
2022/02/15 05:31:42;;;;;;;9.70;3.85;;;6.30;99.90;;;;;;5054975;28;20032;-56
2022/02/15 05:34:07;;;;;;;13.15;4.47;;;6.30;99.90;;;;;;5055741;28;20033;-56
2022/02/15 05:36:33;;;;;;;9.50;4.05;;;6.30;99.90;;;;;;5055091;28;20037;-56
2022/02/15 05:38:59;;;;;;;12.00;3.88;;;6.30;99.90;;;;;;5055331;28;20024;-55
2022/02/15 05:41:25;;;;;;;16.05;3.95;;;6.30;99.90;;;;;;5055149;28;20096;-55
2022/02/15 05:43:51;;;;;;;10.85;3.53;;;6.20;99.90;;;;;;5053958;28;20108;-55
2022/02/15 05:46:17;;;;;;;8.02;3.63;;;6.30;99.90;;;;;;5055093;28;20025;-55
2022/02/15 05:48:42;;;;;;;15.05;3.20;;;6.30;99.90;;;;;;5055430;28;20051;-55
2022/02/15 05:51:08;;;;;;;14.20;3.28;;;6.40;99.90;;;;;;5055109;28;20485;-55
2022/02/15 05:53:34;;;;;;;9.63;2.88;;;6.40;99.90;;;;;;5055499;28;20020;-55
2022/02/15 05:56:02;;;;;;;8.50;3.10;;;6.40;99.90;;;;;;5054780;28;20052;-55
2022/02/15 05:58:29;;;;;;;13.80;3.00;;;6.40;99.90;;;;;;5054761;28;20104;-55
2022/02/15 06:00:56;;;;;;;11.18;2.55;;;6.40;99.90;;;;;;5054502;28;20520;-55
2022/02/15 06:06:07;;;;;;;12.13;2.83;;;6.40;99.90;;;;;;5054672;28;20059;-55
2022/02/15 06:08:33;;;;;;;9.95;2.80;;;6.50;99.90;;;;;;5052762;28;20033;-55
2022/02/15 06:11:00;;;;;;;8.23;2.78;;;6.40;99.90;;;;;;5054387;28;20506;-55
2022/02/15 06:13:25;;;;;;;8.63;2.53;;;6.40;99.90;;;;;;5054146;28;20421;-55
2022/02/15 06:15:51;;;;;;;12.60;2.83;;;6.40;99.90;;;;;;5053976;28;20025;-55
2022/02/15 06:18:17;;;;;;;5.72;2.17;;;6.40;99.90;;;;;;5054167;28;20029;-55
2022/02/15 06:20:43;;;;;;;6.97;2.13;;;6.50;99.90;;;;;;5054491;28;20378;-56
2022/02/15 06:23:08;;;;;;;8.43;2.50;;;6.50;99.90;;;;;;5053632;28;20108;-55
2022/02/15 06:25:34;;;;;;;7.50;2.33;;;6.40;99.90;;;;;;5054432;28;20478;-55
2022/02/15 06:28:00;;;;;;;14.70;3.15;;;6.40;99.90;;;;;;5054490;28;20063;-55
2022/02/15 06:30:26;;;;;;;13.13;2.47;;;6.40;99.90;;;;;;5053856;28;20073;-55
2022/02/15 06:32:52;;;;;;;11.52;2.60;;;6.40;99.90;;;;;;5054499;28;20071;-54
2022/02/15 06:35:18;;;;;;;6.97;2.40;;;6.40;99.90;;;;;;5053434;28;20025;-54
2022/02/15 06:37:45;;;;;;;8.23;2.40;;;6.40;99.90;;;;;;5054460;28;20472;-54
2022/02/15 06:40:15;;;;;;;9.43;2.80;;;6.30;99.90;;;;;;5054292;28;20025;-54
2022/02/15 06:42:42;;;;;;;11.43;3.13;;;6.20;99.90;;;;;;5053476;28;20025;-54
2022/02/15 06:45:08;;;;;;;10.15;3.05;;;6.10;99.90;;;;;;5053613;28;20025;-54
2022/02/15 06:47:34;;;;;;;8.45;2.78;;;6.10;99.90;;;;;;5051233;28;20175;-54
2022/02/15 06:50:00;;;;;;;13.07;2.83;;;6.00;99.90;;;;;;5049483;28;20021;-54
2022/02/15 06:52:27;;;;;;;11.48;2.75;;;5.90;99.90;;;;;;5051730;28;20485;-54
2022/02/15 06:54:53;;;;;;;6.05;2.53;;;5.80;99.90;;;;;;5051985;28;20021;-54
2022/02/15 06:57:19;;;;;;;8.45;3.10;;;5.80;99.90;;;;;;5051375;28;20529;-54
2022/02/15 06:59:44;;;;;;;10.18;3.47;;;5.80;99.90;;;;;;5051261;28;20024;-54
2022/02/15 07:02:10;;;;;;;11.43;3.47;;;5.70;99.90;;;;;;5051258;28;20017;-54
2022/02/15 07:04:36;;;;;;;12.32;3.47;;;5.60;99.90;;;;;;5049467;28;20054;-54
2022/02/15 07:07:02;;;;;;;13.32;3.85;;;5.50;99.90;;;;;;5044800;28;20114;-54
2022/02/15 07:09:27;;;;;;;10.20;3.05;;;5.50;99.90;;;;;;5042445;28;20467;-54
2022/02/15 07:11:53;;;;;;;9.68;3.33;;;5.40;99.90;;;;;;5042898;28;20033;-54
2022/02/15 07:14:19;;;;;;;6.53;2.40;;;5.40;99.90;;;;;;5041212;28;20068;-54
2022/02/15 07:16:44;;;;;;;9.95;2.85;;;5.50;99.90;;;;;;5042851;28;20526;-54
2022/02/15 07:19:10;;;;;;;7.38;2.58;;;5.40;99.90;;;;;;5042522;28;20038;-54
2022/02/15 07:21:37;;;;;;;7.60;2.38;;;5.40;99.90;;;;;;5043185;28;20094;-54
2022/02/15 07:24:03;;;;;;;10.88;2.72;;;5.40;99.90;;;;;;5043845;28;20029;-54
2022/02/15 07:26:30;;;;;;;7.03;2.83;;;5.40;99.90;;;;;;5043709;28;20175;-54
2022/02/15 07:28:57;;;;;;;12.02;2.40;;;5.40;99.90;;;;;;5044816;28;20053;-54
2022/02/15 07:31:23;;;;;;;7.90;2.60;;;5.40;99.90;;;;;;5041722;28;20321;-54
2022/02/15 07:33:48;;;;;;;7.90;3.13;;;5.40;99.90;;;;;;5040488;28;20082;-54
2022/02/15 07:36:14;;;;;;;12.05;2.70;;;5.30;99.90;;;;;;5044888;28;20037;-54
2022/02/15 07:38:40;;;;;;;7.40;2.20;;;5.20;99.90;;;;;;5049389;28;20119;-54
2022/02/15 07:41:06;;;;;;;8.70;2.50;;;5.20;99.90;;;;;;5044350;28;20040;-55
2022/02/15 07:43:32;;;;;;;8.10;2.67;;;5.20;99.90;;;;;;5039672;28;20041;-55
2022/02/15 07:45:58;;;;;;;10.65;2.72;;;5.30;99.90;;;;;;5037220;28;20106;-55
2022/02/15 07:48:24;;;;;;;10.98;2.85;;;5.30;99.90;;;;;;5039155;28;20421;-55
2022/02/15 07:50:49;;;;;;;11.65;2.72;;;5.30;99.90;;;;;;5038922;28;20037;-55
2022/02/15 07:53:15;;;;;;;7.85;2.65;;;5.30;99.90;;;;;;5042104;28;20090;-55
2022/02/15 07:55:41;;;;;;;7.93;1.90;;;5.40;99.90;;;;;;5040372;28;20477;-55
2022/02/15 07:58:07;;;;;;;8.93;2.53;;;5.40;99.90;;;;;;5038302;28;20029;-55
2022/02/15 08:00:33;;;;;;;11.48;2.53;;;5.40;99.90;;;;;;5040578;28;20033;-55
2022/02/15 08:02:59;;;;;;;9.77;2.30;;;5.40;99.90;;;;;;5040807;28;20025;-55
2022/02/15 08:05:25;;;;;;;9.25;2.42;;;5.50;99.90;;;;;;5042424;28;20036;-55
2022/02/15 08:07:56;;;;;;;8.82;2.10;;;5.50;99.90;;;;;;5043427;28;20047;-55
2022/02/15 08:10:23;;;;;;;9.13;2.17;;;5.60;99.90;;;;;;5044424;28;20029;-55
2022/02/15 08:12:55;;;;;;;12.00;2.80;;;5.70;99.90;;;;;;5041929;28;20033;-55
2022/02/15 08:15:30;;;;;;;10.48;2.70;;;5.70;99.90;;;;;;5045039;28;20602;-55
2022/02/15 08:17:57;;;;;;;10.00;2.75;;;5.70;99.90;;;;;;5044139;28;20044;-55
2022/02/15 08:20:23;;;;;;;6.55;2.28;;;5.80;99.90;;;;;;5046795;28;20511;-55
2022/02/15 08:22:50;;;;;;;5.82;2.60;;;5.80;99.90;;;;;;5038392;28;20016;-55
2022/02/15 08:25:16;;;;;;;9.80;2.78;;;5.80;99.90;;;;;;5046245;28;20064;-56
2022/02/15 08:27:42;;;;;;;13.35;2.30;;;5.90;99.90;;;;;;5040205;28;20029;-55
2022/02/15 08:30:08;;;;;;;9.35;2.53;;;5.90;99.90;;;;;;5043147;28;20052;-55
2022/02/15 08:32:34;;;;;;;14.77;2.53;;;6.30;99.90;;;;;;5047075;28;20039;-54
2022/02/15 08:35:00;;;;;;;9.57;2.88;;;7.10;99.90;;;;;;5044844;28;20033;-54
2022/02/15 08:37:26;;;;;;;9.93;3.08;;;7.70;99.90;;;;;;5044843;28;20103;-54
2022/02/15 08:39:51;;;;;;;8.43;3.10;;;8.40;99.90;;;;;;5045595;28;20040;-54
2022/02/15 08:42:17;;;;;;;9.20;1.90;;;8.80;99.90;;;;;;5045651;28;20029;-54
2022/02/15 08:44:44;;;;;;;5.82;2.17;;;8.60;99.90;;;;;;5040999;28;20115;-54
2022/02/15 08:47:10;;;;;;;7.93;2.35;;;8.90;99.90;;;;;;5049278;28;20118;-54
2022/02/15 08:49:37;;;;;;;7.85;2.28;;;8.80;99.90;;;;;;5044793;28;20578;-54
2022/02/15 08:52:04;;;;;;;11.00;2.50;;;8.60;99.90;;;;;;5047101;28;20081;-55
2022/02/15 08:54:30;;;;;;;9.63;2.92;;;8.70;99.90;;;;;;5041743;28;21976;-55
2022/02/15 08:56:55;;;;;;;10.60;2.92;;;9.00;99.90;;;;;;5044995;28;20060;-55
2022/02/15 08:59:21;;;;;;;6.72;2.50;;;9.10;99.90;;;;;;5050810;28;20051;-55
2022/02/15 09:01:48;;;;;;;10.13;2.95;;;9.50;99.90;;;;;;5048267;28;20021;-55
2022/02/15 09:04:14;;;;;;;7.00;3.20;;;9.90;99.90;;;;;;5048994;28;20036;-55
2022/02/15 09:06:41;;;;;;;16.75;6.95;;;10.00;99.90;;;;;;5049101;28;20833;-55
2022/02/15 09:09:08;;;;;;;10.40;2.20;;;10.10;99.90;;;;;;5052554;28;20025;-55
2022/02/15 09:11:33;;;;;;;8.90;2.50;;;10.20;99.90;;;;;;5051775;28;20025;-55
2022/02/15 09:13:59;;;;;;;7.18;2.08;;;10.50;99.90;;;;;;5043164;28;20719;-55
2022/02/15 09:16:25;;;;;;;10.70;2.33;;;10.90;99.90;;;;;;5043042;28;20116;-55
2022/02/15 09:18:50;;;;;;;9.05;2.42;;;11.00;99.90;;;;;;5046689;28;20474;-55
2022/02/15 09:21:17;;;;;;;10.65;3.20;;;10.90;99.90;;;;;;5050842;28;20833;-55
2022/02/15 09:23:43;;;;;;;9.02;2.40;;;10.90;99.90;;;;;;5048555;28;20044;-54
2022/02/15 09:26:09;;;;;;;10.80;2.05;;;10.70;99.90;;;;;;5043740;28;21503;-54
2022/02/15 09:28:35;;;;;;;12.20;3.65;;;10.10;99.90;;;;;;5042506;28;20094;-56
2022/02/15 09:31:01;;;;;;;12.70;2.70;;;10.20;99.90;;;;;;5046782;28;20040;-56
2022/02/15 09:33:27;;;;;;;7.55;2.30;;;10.10;99.90;;;;;;5047308;28;20033;-56
2022/02/15 09:35:53;;;;;;;12.00;3.25;;;10.10;99.90;;;;;;5048295;28;20037;-56
2022/02/15 09:38:20;;;;;;;11.25;3.90;;;10.40;99.90;;;;;;5052310;28;20029;-56
2022/02/15 09:40:48;;;;;;;8.02;3.05;;;10.50;99.90;;;;;;5049961;28;20091;-56
2022/02/15 09:43:14;;;;;;;9.05;2.38;;;10.70;99.90;;;;;;5039646;28;20052;-57
2022/02/15 09:45:39;;;;;;;12.57;2.65;;;11.10;99.90;;;;;;5049651;28;20508;-56
2022/02/15 09:48:09;;;;;;;7.90;2.67;;;11.00;99.90;;;;;;5054123;28;20021;-56
2022/02/15 09:50:35;;;;;;;9.98;2.60;;;10.80;99.90;;;;;;5046362;28;20086;-57
2022/02/15 09:53:01;;;;;;;7.03;2.90;;;10.80;99.90;;;;;;5047848;28;20445;-57
2022/02/15 09:55:27;;;;;;;10.60;2.90;;;10.60;99.90;;;;;;5049037;28;20032;-57
2022/02/15 09:57:53;;;;;;;9.30;2.92;;;10.90;99.90;;;;;;5047153;28;20164;-57
2022/02/15 10:00:21;;;;;;;12.50;3.72;;;11.00;99.90;;;;;;5049249;28;20104;-57
2022/02/15 10:02:48;;;;;;;8.68;3.30;;;11.00;99.90;;;;;;5048586;28;20478;-57
2022/02/15 10:05:15;;;;;;;10.35;3.10;;;11.10;99.90;;;;;;5048298;28;20040;-57
2022/02/15 10:07:55;;;;;;;11.73;3.85;;;10.90;99.90;;;;;;5048875;28;20052;-56
2022/02/15 10:10:33;;;;;;;15.13;4.30;;;10.70;99.90;;;;;;5048212;28;20021;-57
2022/02/15 10:13:01;;;;;;;11.70;3.22;;;11.20;99.90;;;;;;5048496;28;20541;-57
2022/02/15 10:15:29;;;;;;;12.25;3.60;;;11.10;99.90;;;;;;5045163;28;20039;-57
2022/02/15 10:18:12;;;;;;;14.88;3.83;;;11.20;99.90;;;;;;5049790;28;20033;-55
2022/02/15 10:20:42;;;;;;;9.48;3.67;;;11.00;99.90;;;;;;5050439;28;20013;-56
2022/02/15 10:23:19;;;;;;;15.80;3.78;;;11.20;99.90;;;;;;5052111;28;20576;-57
2022/02/15 10:25:46;;;;;;;11.82;3.80;;;11.30;99.90;;;;;;5052083;28;20025;-57
2022/02/15 10:28:17;;;;;;;11.80;4.28;;;11.60;99.90;;;;;;5041393;28;20040;-57
2022/02/15 10:30:54;;;;;;;12.45;4.57;;;11.40;99.90;;;;;;5049700;28;20088;-57
2022/02/15 10:33:28;;;;;;;8.68;2.38;;;11.60;99.90;;;;;;5046627;28;20101;-57
2022/02/15 10:36:00;;;;;;;14.30;3.17;;;11.60;99.90;;;;;;5045172;28;20037;-57
2022/02/15 10:38:38;;;;;;;8.25;3.50;;;11.30;99.90;;;;;;5052393;28;20046;-57
2022/02/15 10:41:07;;;;;;;11.65;4.00;;;11.10;99.90;;;;;;5050518;28;20052;-57
2022/02/15 10:43:46;;;;;;;10.27;3.88;;;11.00;99.90;;;;;;5047728;28;20029;-57
2022/02/15 10:46:19;;;;;;;14.73;5.05;;;10.90;99.90;;;;;;5049661;28;20055;-57
2022/02/15 10:48:46;;;;;;;10.07;3.85;;;11.50;99.90;;;;;;5050343;28;20021;-57
2022/02/15 10:51:13;;;;;;;9.55;3.08;;;11.40;99.90;;;;;;5048211;28;20524;-56
2022/02/15 10:53:39;;;;;;;13.15;2.97;;;11.40;99.90;;;;;;5048678;28;20021;-57
2022/02/15 10:56:05;;;;;;;15.45;3.17;;;11.70;99.90;;;;;;5047462;28;20107;-56
2022/02/15 10:58:33;;;;;;;8.25;2.50;;;11.60;99.90;;;;;;5050330;28;20135;-57
2022/02/15 11:01:01;;;;;;;10.55;2.00;;;12.20;99.90;;;;;;5049992;28;20028;-57
2022/02/15 11:03:31;;;;;;;12.82;2.35;;;12.10;99.90;;;;;;5045541;28;20605;-56
2022/02/15 11:05:58;;;;;;;3.88;1.50;;;11.70;99.90;;;;;;5043758;28;20074;-56
2022/02/15 11:08:25;;;;;;;8.63;1.70;;;12.00;99.90;;;;;;5047467;28;20056;-57
2022/02/15 11:11:22;;;;;;;6.85;1.83;;;12.10;99.90;;;;;;5041575;28;20526;-56
2022/02/15 11:13:48;;;;;;;12.60;2.40;;;12.00;99.90;;;;;;5042488;28;20041;-56
2022/02/15 11:16:19;;;;;;;7.18;2.25;;;12.10;99.90;;;;;;5046465;28;20029;-56
2022/02/15 11:18:45;;;;;;;9.32;2.50;;;11.70;99.90;;;;;;5047598;28;20025;-56
2022/02/15 11:21:51;;;;;;;10.00;2.47;;;11.30;99.90;;;;;;5043144;28;20025;-56
2022/02/15 11:24:17;;;;;;;7.97;2.35;;;12.10;99.90;;;;;;5039420;28;20154;-57
2022/02/15 11:26:43;;;;;;;14.55;2.38;;;12.20;99.90;;;;;;5047966;28;20292;-56
2022/02/15 11:29:23;;;;;;;9.02;2.10;;;12.50;99.90;;;;;;5054746;28;20082;-56
2022/02/15 11:31:50;;;;;;;9.13;2.25;;;12.80;99.90;;;;;;5044484;28;20591;-55
2022/02/15 11:34:16;;;;;;;7.35;1.90;;;12.70;99.90;;;;;;5049738;28;20029;-55
2022/02/15 11:36:50;;;;;;;7.32;1.88;;;12.80;99.90;;;;;;5044676;28;20118;-55
2022/02/15 11:39:23;;;;;;;9.40;2.65;;;12.90;99.90;;;;;;5047536;28;20036;-55
2022/02/15 11:41:51;;;;;;;6.75;1.75;;;13.30;99.90;;;;;;5049338;28;20016;-55
2022/02/15 11:44:31;;;;;;;8.77;1.83;;;13.40;99.90;;;;;;5049937;28;20569;-55
2022/02/15 11:47:13;;;;;;;9.80;2.10;;;13.20;99.90;;;;;;5049643;28;20033;-55
2022/02/15 11:49:52;;;;;;;9.27;2.47;;;12.90;99.90;;;;;;5044350;28;20028;-55
2022/02/15 11:52:21;;;;;;;10.40;1.83;;;12.80;99.90;;;;;;5046653;28;20088;-56
2022/02/15 11:54:46;;;;;;;9.05;2.05;;;12.70;99.90;;;;;;5050578;28;20037;-55
2022/02/15 11:57:13;;;;;;;7.70;1.58;;;12.10;99.90;;;;;;5045678;28;20486;-55
2022/02/15 11:59:39;;;;;;;7.82;2.10;;;12.00;99.90;;;;;;5044473;28;20486;-55
2022/02/15 12:02:10;;;;;;;5.70;1.27;;;12.10;99.90;;;;;;5049287;28;20103;-55
2022/02/15 12:04:36;;;;;;;10.40;1.52;;;11.80;99.90;;;;;;5051673;28;20031;-55
2022/02/15 12:07:03;;;;;;;12.75;2.28;;;11.40;99.90;;;;;;5045986;28;20071;-55
2022/02/15 12:09:31;;;;;;;9.35;1.50;;;11.30;99.90;;;;;;5042754;28;20021;-55
2022/02/15 12:11:58;;;;;;;10.73;1.35;;;11.20;99.90;;;;;;5036429;28;20453;-55
2022/02/15 12:14:25;;;;;;;10.88;1.88;;;10.60;99.90;;;;;;5043205;28;20082;-56
2022/02/15 12:16:56;;;;;;;8.80;1.45;;;10.70;99.90;;;;;;5040595;28;20025;-55
2022/02/15 12:19:30;;;;;;;10.77;2.17;;;11.00;99.90;;;;;;5044909;28;20075;-55
2022/02/15 12:22:05;;;;;;;11.00;3.40;;;11.40;99.90;;;;;;5042745;28;20029;-55
2022/02/15 12:24:32;;;;;;;8.00;1.52;;;11.70;99.90;;;;;;5043706;28;20394;-55
2022/02/15 12:27:01;;;;;;;11.70;2.67;;;11.70;99.90;;;;;;5042081;28;20032;-56
2022/02/15 12:29:28;;;;;;;6.90;2.00;;;11.90;99.90;;;;;;5046082;28;20067;-56
2022/02/15 12:32:24;;;;;;;8.88;1.85;;;11.60;99.90;;;;;;5045916;28;20013;-56
2022/02/15 12:34:51;;;;;;;10.55;2.10;;;11.50;99.90;;;;;;5041188;28;20048;-56
2022/02/15 12:37:22;;;;;;;10.95;1.77;;;11.30;99.90;;;;;;5041138;28;20485;-56
2022/02/15 12:39:55;;;;;;;5.55;1.40;;;11.00;99.90;;;;;;5039664;28;20024;-55
2022/02/15 12:42:23;;;;;;;7.88;1.75;;;10.80;99.90;;;;;;5034403;28;20482;-55
2022/02/15 12:45:10;;;;;;;7.68;1.60;;;11.30;99.90;;;;;;5040683;28;20048;-55
2022/02/15 12:47:40;;;;;;;11.02;1.90;;;11.20;99.90;;;;;;5041331;28;20033;-56
2022/02/15 12:50:07;;;;;;;8.20;2.00;;;11.30;99.90;;;;;;5042397;28;20033;-56
2022/02/15 12:52:33;;;;;;;9.77;1.98;;;10.90;99.90;;;;;;5043373;28;20029;-56
2022/02/15 12:55:20;;;;;;;10.57;1.83;;;10.80;99.90;;;;;;5044450;28;20025;-56